sensor_id;sensor_type;location;lat;lon;timestamp;pressure;altitude;pressure_sealevel;temperature;humidity
25650;BME280;13505;45.196;5.696;2023-03-25T05:04:40;99474.81;;;9.87;100.00
25650;BME280;13505;45.196;5.696;2023-03-25T05:09:31;99477.56;;;9.84;99.91
25650;BME280;13505;45.196;5.696;2023-03-25T05:14:21;99482.75;;;9.85;98.96
25650;BME280;13505;45.196;5.696;2023-03-25T05:19:12;99475.94;;;9.80;98.01
25650;BME280;13505;45.196;5.696;2023-03-25T05:24:06;99479.63;;;9.75;98.13
25650;BME280;13505;45.196;5.696;2023-03-25T05:29:03;99486.78;;;9.72;98.72
25650;BME280;13505;45.196;5.696;2023-03-25T05:33:54;99485.06;;;9.71;97.77
25650;BME280;13505;45.196;5.696;2023-03-25T05:38:45;99486.81;;;9.70;97.83
25650;BME280;13505;45.196;5.696;2023-03-25T05:43:36;99493.13;;;9.66;97.97
25650;BME280;13505;45.196;5.696;2023-03-25T05:48:27;99488.03;;;9.61;99.41
25650;BME280;13505;45.196;5.696;2023-03-25T05:53:21;99503.66;;;9.66;99.02
25650;BME280;13505;45.196;5.696;2023-03-25T05:58:11;99507.25;;;9.63;98.55
25650;BME280;13505;45.196;5.696;2023-03-25T06:03:02;99501.63;;;9.74;98.56
25650;BME280;13505;45.196;5.696;2023-03-25T06:07:52;99504.28;;;9.73;97.23
25650;BME280;13505;45.196;5.696;2023-03-25T06:12:46;99505.50;;;9.64;96.77
25650;BME280;13505;45.196;5.696;2023-03-25T06:17:36;99514.31;;;9.63;96.94
25650;BME280;13505;45.196;5.696;2023-03-25T06:22:29;99512.47;;;9.65;96.44
25650;BME280;13505;45.196;5.696;2023-03-25T06:27:23;99525.03;;;9.58;98.26
25650;BME280;13505;45.196;5.696;2023-03-25T06:32:13;99520.34;;;9.67;97.77
25650;BME280;13505;45.196;5.696;2023-03-25T06:37:04;99533.25;;;9.73;97.83
25650;BME280;13505;45.196;5.696;2023-03-25T06:41:57;99524.09;;;9.83;96.66
25650;BME280;13505;45.196;5.696;2023-03-25T06:46:47;99538.50;;;9.98;97.70
25650;BME280;13505;45.196;5.696;2023-03-25T06:51:38;99528.13;;;10.40;97.64
25650;BME280;13505;45.196;5.696;2023-03-25T06:56:28;99518.19;;;11.12;92.37
25650;BME280;13505;45.196;5.696;2023-03-25T07:01:18;99518.03;;;10.73;88.95
25650;BME280;13505;45.196;5.696;2023-03-25T07:06:14;99525.19;;;11.13;88.87
25650;BME280;13505;45.196;5.696;2023-03-25T07:11:06;99488.56;;;11.26;86.63
25650;BME280;13505;45.196;5.696;2023-03-25T07:15:57;99493.75;;;11.48;85.58
25650;BME280;13505;45.196;5.696;2023-03-25T07:20:49;99495.25;;;11.54;83.12
25650;BME280;13505;45.196;5.696;2023-03-25T07:25:40;99498.38;;;11.62;80.28
25650;BME280;13505;45.196;5.696;2023-03-25T07:30:30;99508.97;;;11.41;80.50
25650;BME280;13505;45.196;5.696;2023-03-25T07:35:21;99504.31;;;11.48;81.98
25650;BME280;13505;45.196;5.696;2023-03-25T07:40:11;99510.25;;;11.53;82.33
25650;BME280;13505;45.196;5.696;2023-03-25T07:45:03;99522.41;;;11.77;82.44
25650;BME280;13505;45.196;5.696;2023-03-25T07:49:53;99522.06;;;11.84;82.28
25650;BME280;13505;45.196;5.696;2023-03-25T07:54:43;99524.19;;;11.76;80.06
25650;BME280;13505;45.196;5.696;2023-03-25T07:59:34;99521.81;;;12.10;79.40
25650;BME280;13505;45.196;5.696;2023-03-25T08:04:24;99527.91;;;12.12;76.93
25650;BME280;13505;45.196;5.696;2023-03-25T08:09:15;99541.91;;;12.33;75.66
25650;BME280;13505;45.196;5.696;2023-03-25T08:14:05;99537.91;;;12.44;77.76
25650;BME280;13505;45.196;5.696;2023-03-25T08:18:56;99541.00;;;12.52;79.53
25650;BME280;13505;45.196;5.696;2023-03-25T08:23:46;99547.00;;;12.55;78.86
25650;BME280;13505;45.196;5.696;2023-03-25T08:28:37;99562.81;;;12.57;78.17
25650;BME280;13505;45.196;5.696;2023-03-25T08:33:28;99563.94;;;12.70;78.56
25650;BME280;13505;45.196;5.696;2023-03-25T08:38:28;99571.59;;;12.94;78.89
25650;BME280;13505;45.196;5.696;2023-03-25T08:43:21;99567.56;;;13.22;79.13
25650;BME280;13505;45.196;5.696;2023-03-25T08:48:12;99565.78;;;13.40;78.34
25650;BME280;13505;45.196;5.696;2023-03-25T08:53:02;99567.97;;;13.50;77.12
25650;BME280;13505;45.196;5.696;2023-03-25T08:57:52;99568.91;;;13.66;76.48
25650;BME280;13505;45.196;5.696;2023-03-25T09:02:43;99571.03;;;14.09;73.30
25650;BME280;13505;45.196;5.696;2023-03-25T09:07:33;99558.75;;;14.41;68.71
25650;BME280;13505;45.196;5.696;2023-03-25T09:12:25;99555.59;;;14.34;67.26
25650;BME280;13505;45.196;5.696;2023-03-25T09:17:15;99552.06;;;14.33;64.77
25650;BME280;13505;45.196;5.696;2023-03-25T09:22:06;99547.09;;;14.27;65.72
25650;BME280;13505;45.196;5.696;2023-03-25T09:26:57;99541.53;;;14.16;63.22
25650;BME280;13505;45.196;5.696;2023-03-25T09:31:47;99539.06;;;14.29;64.11
25650;BME280;13505;45.196;5.696;2023-03-25T09:36:37;99540.34;;;14.37;62.60
25650;BME280;13505;45.196;5.696;2023-03-25T09:46:32;99547.53;;;14.35;61.76
25650;BME280;13505;45.196;5.696;2023-03-25T09:51:26;99534.44;;;14.32;59.42
25650;BME280;13505;45.196;5.696;2023-03-25T09:56:20;99519.31;;;14.18;60.13
25650;BME280;13505;45.196;5.696;2023-03-25T10:01:37;99528.38;;;13.80;59.50
25650;BME280;13505;45.196;5.696;2023-03-25T10:06:31;99525.88;;;14.27;59.81
25650;BME280;13505;45.196;5.696;2023-03-25T10:21:40;99508.09;;;15.37;57.53
25650;BME280;13505;45.196;5.696;2023-03-25T10:31:25;99509.25;;;15.62;50.50
25650;BME280;13505;45.196;5.696;2023-03-25T10:36:27;99523.59;;;15.88;52.08
25650;BME280;13505;45.196;5.696;2023-03-25T10:41:25;99520.31;;;16.27;53.82
25650;BME280;13505;45.196;5.696;2023-03-25T10:51:28;99514.19;;;16.54;52.80
25650;BME280;13505;45.196;5.696;2023-03-25T10:56:24;99507.22;;;16.51;50.21
25650;BME280;13505;45.196;5.696;2023-03-25T11:01:20;99506.47;;;16.49;50.11
25650;BME280;13505;45.196;5.696;2023-03-25T11:06:29;99478.63;;;16.40;50.96
25650;BME280;13505;45.196;5.696;2023-03-25T11:11:30;99497.84;;;16.45;49.49
25650;BME280;13505;45.196;5.696;2023-03-25T11:16:21;99488.63;;;17.05;48.60
25650;BME280;13505;45.196;5.696;2023-03-25T11:21:13;99477.41;;;16.99;45.49
25650;BME280;13505;45.196;5.696;2023-03-25T11:26:19;99478.34;;;16.85;46.71
25650;BME280;13505;45.196;5.696;2023-03-25T11:31:11;99467.56;;;17.27;45.33
25650;BME280;13505;45.196;5.696;2023-03-25T11:36:24;99460.13;;;16.79;45.03
25650;BME280;13505;45.196;5.696;2023-03-25T11:41:16;99445.69;;;17.35;42.20
25650;BME280;13505;45.196;5.696;2023-03-25T11:46:12;99439.50;;;17.98;43.10
25650;BME280;13505;45.196;5.696;2023-03-25T11:51:05;99442.88;;;18.13;39.50
25650;BME280;13505;45.196;5.696;2023-03-25T11:56:03;99447.16;;;18.16;39.06
25650;BME280;13505;45.196;5.696;2023-03-25T12:01:02;99446.44;;;17.63;39.63
25650;BME280;13505;45.196;5.696;2023-03-25T12:06:15;99433.22;;;17.10;39.50
25650;BME280;13505;45.196;5.696;2023-03-25T12:11:15;99413.03;;;17.95;38.85
25650;BME280;13505;45.196;5.696;2023-03-25T12:21:29;99395.91;;;18.35;37.45
25650;BME280;13505;45.196;5.696;2023-03-25T12:26:36;99398.09;;;18.30;36.91
25650;BME280;13505;45.196;5.696;2023-03-25T12:47:23;99373.81;;;18.33;37.60
25650;BME280;13505;45.196;5.696;2023-03-25T12:57:34;99357.53;;;18.24;38.13
25650;BME280;13505;45.196;5.696;2023-03-25T13:07:58;99337.28;;;18.80;38.14
25650;BME280;13505;45.196;5.696;2023-03-25T13:12:57;99331.19;;;18.78;37.46
25650;BME280;13505;45.196;5.696;2023-03-25T13:18:09;99327.06;;;18.74;38.98
25650;BME280;13505;45.196;5.696;2023-03-25T13:23:04;99331.56;;;18.85;37.52
25650;BME280;13505;45.196;5.696;2023-03-25T13:27:59;99328.38;;;18.57;37.80
25650;BME280;13505;45.196;5.696;2023-03-25T13:32:56;99325.09;;;18.65;37.58
25650;BME280;13505;45.196;5.696;2023-03-25T13:37:55;99325.34;;;18.50;37.84
25650;BME280;13505;45.196;5.696;2023-03-25T13:48:13;99327.06;;;18.63;37.32
25650;BME280;13505;45.196;5.696;2023-03-25T13:53:25;99332.28;;;18.64;37.81
25650;BME280;13505;45.196;5.696;2023-03-25T14:14:07;99325.69;;;18.46;38.18
25650;BME280;13505;45.196;5.696;2023-03-25T14:19:10;99319.84;;;18.52;37.67
25650;BME280;13505;45.196;5.696;2023-03-25T14:24:06;99310.78;;;18.66;37.85
25650;BME280;13505;45.196;5.696;2023-03-25T14:29:07;99301.03;;;18.42;37.59
25650;BME280;13505;45.196;5.696;2023-03-25T14:38:54;99286.47;;;18.46;37.20
25650;BME280;13505;45.196;5.696;2023-03-25T14:43:51;99294.44;;;18.35;38.02
25650;BME280;13505;45.196;5.696;2023-03-25T14:53:37;99293.63;;;18.34;37.89
25650;BME280;13505;45.196;5.696;2023-03-25T14:58:28;99277.81;;;18.31;36.91
25650;BME280;13505;45.196;5.696;2023-03-25T15:03:19;99302.91;;;18.17;36.92
25650;BME280;13505;45.196;5.696;2023-03-25T15:08:20;99291.00;;;18.10;37.63
25650;BME280;13505;45.196;5.696;2023-03-25T15:28:48;99289.94;;;17.99;37.56
25650;BME280;13505;45.196;5.696;2023-03-25T15:34:01;99281.56;;;17.93;37.68
25650;BME280;13505;45.196;5.696;2023-03-25T15:59:45;99251.00;;;17.37;38.74
25650;BME280;13505;45.196;5.696;2023-03-25T16:04:45;99263.34;;;17.38;39.14
25650;BME280;13505;45.196;5.696;2023-03-25T16:09:39;99272.09;;;17.40;38.64
25650;BME280;13505;45.196;5.696;2023-03-25T16:14:33;99275.19;;;17.34;39.12
25650;BME280;13505;45.196;5.696;2023-03-25T16:19:43;99266.88;;;17.25;37.75
25650;BME280;13505;45.196;5.696;2023-03-25T16:24:34;99250.09;;;17.12;38.49
25650;BME280;13505;45.196;5.696;2023-03-25T16:29:25;99245.00;;;17.09;39.64
25650;BME280;13505;45.196;5.696;2023-03-25T16:34:15;99224.97;;;17.03;38.88
25650;BME280;13505;45.196;5.696;2023-03-25T16:39:11;99220.38;;;16.92;40.38
25650;BME280;13505;45.196;5.696;2023-03-25T16:44:02;99216.97;;;16.77;43.66
25650;BME280;13505;45.196;5.696;2023-03-25T16:48:53;99221.16;;;16.68;43.48
25650;BME280;13505;45.196;5.696;2023-03-25T16:53:48;99218.81;;;16.64;42.65
25650;BME280;13505;45.196;5.696;2023-03-25T16:59:05;99215.66;;;16.58;41.73
25650;BME280;13505;45.196;5.696;2023-03-25T17:04:34;99212.91;;;16.47;44.66
25650;BME280;13505;45.196;5.696;2023-03-25T17:09:31;99215.31;;;16.24;47.41
25650;BME280;13505;45.196;5.696;2023-03-25T17:14:29;99215.53;;;16.08;48.10
25650;BME280;13505;45.196;5.696;2023-03-25T17:19:25;99210.00;;;15.98;46.51
25650;BME280;13505;45.196;5.696;2023-03-25T17:24:22;99205.56;;;15.84;47.97
25650;BME280;13505;45.196;5.696;2023-03-25T17:29:13;99206.75;;;15.80;46.68
25650;BME280;13505;45.196;5.696;2023-03-25T17:34:10;99213.41;;;15.73;46.92
25650;BME280;13505;45.196;5.696;2023-03-25T17:39:04;99225.53;;;15.64;47.51
25650;BME280;13505;45.196;5.696;2023-03-25T17:43:55;99219.00;;;15.55;47.62
25650;BME280;13505;45.196;5.696;2023-03-25T17:48:46;99212.41;;;15.48;47.11
25650;BME280;13505;45.196;5.696;2023-03-25T17:53:36;99204.94;;;15.40;48.80
25650;BME280;13505;45.196;5.696;2023-03-25T17:58:27;99207.75;;;15.24;51.40
25650;BME280;13505;45.196;5.696;2023-03-25T18:03:21;99208.41;;;15.13;52.21
25650;BME280;13505;45.196;5.696;2023-03-25T18:08:12;99199.13;;;15.06;51.39
25650;BME280;13505;45.196;5.696;2023-03-25T18:13:02;99194.53;;;14.95;51.10
25650;BME280;13505;45.196;5.696;2023-03-25T18:17:54;99187.06;;;14.87;52.33
25650;BME280;13505;45.196;5.696;2023-03-25T18:22:45;99185.16;;;14.75;55.08
25650;BME280;13505;45.196;5.696;2023-03-25T18:27:36;99195.41;;;14.67;54.62
25650;BME280;13505;45.196;5.696;2023-03-25T18:32:26;99204.88;;;14.56;55.67
25650;BME280;13505;45.196;5.696;2023-03-25T18:37:17;99191.13;;;14.49;55.73
25650;BME280;13505;45.196;5.696;2023-03-25T18:42:07;99180.91;;;14.43;57.75
25650;BME280;13505;45.196;5.696;2023-03-25T18:46:58;99198.34;;;14.33;57.72
25650;BME280;13505;45.196;5.696;2023-03-25T18:51:48;99203.16;;;14.26;54.42
25650;BME280;13505;45.196;5.696;2023-03-25T18:56:39;99216.03;;;14.32;51.25
25650;BME280;13505;45.196;5.696;2023-03-25T19:01:32;99201.34;;;14.27;54.43
25650;BME280;13505;45.196;5.696;2023-03-25T19:06:22;99183.81;;;14.09;55.45
25650;BME280;13505;45.196;5.696;2023-03-25T19:11:13;99181.53;;;14.03;55.43
25650;BME280;13505;45.196;5.696;2023-03-25T19:16:05;99170.44;;;13.96;55.91
25650;BME280;13505;45.196;5.696;2023-03-25T19:20:56;99167.97;;;13.93;55.69
25650;BME280;13505;45.196;5.696;2023-03-25T19:25:48;99163.63;;;13.92;55.90
25650;BME280;13505;45.196;5.696;2023-03-25T19:30:39;99175.78;;;13.80;57.05
25650;BME280;13505;45.196;5.696;2023-03-25T19:35:32;99157.63;;;13.74;58.84
25650;BME280;13505;45.196;5.696;2023-03-25T19:40:25;99157.22;;;13.66;60.08
25650;BME280;13505;45.196;5.696;2023-03-25T19:45:17;99163.06;;;13.57;63.58
25650;BME280;13505;45.196;5.696;2023-03-25T19:50:12;99161.16;;;13.59;61.58
25650;BME280;13505;45.196;5.696;2023-03-25T19:55:03;99163.91;;;13.57;58.74
25650;BME280;13505;45.196;5.696;2023-03-25T19:59:54;99160.31;;;13.58;57.64
25650;BME280;13505;45.196;5.696;2023-03-25T20:04:45;99164.63;;;13.45;58.05
25650;BME280;13505;45.196;5.696;2023-03-25T20:09:38;99174.69;;;13.38;59.16
25650;BME280;13505;45.196;5.696;2023-03-25T20:14:30;99170.97;;;13.26;59.52
25650;BME280;13505;45.196;5.696;2023-03-25T20:19:20;99184.53;;;13.20;59.04
25650;BME280;13505;45.196;5.696;2023-03-25T20:24:11;99189.00;;;13.03;58.13
25650;BME280;13505;45.196;5.696;2023-03-25T20:29:02;99195.66;;;12.94;57.64
25650;BME280;13505;45.196;5.696;2023-03-25T20:33:52;99183.88;;;12.84;57.56
25650;BME280;13505;45.196;5.696;2023-03-25T20:38:44;99175.06;;;12.67;58.99
25650;BME280;13505;45.196;5.696;2023-03-25T20:43:35;99178.16;;;12.76;59.20
25650;BME280;13505;45.196;5.696;2023-03-25T20:48:25;99183.47;;;12.76;58.51
25650;BME280;13505;45.196;5.696;2023-03-25T20:53:16;99173.81;;;12.75;57.93
25650;BME280;13505;45.196;5.696;2023-03-25T20:58:06;99159.88;;;12.87;56.75
25650;BME280;13505;45.196;5.696;2023-03-25T21:02:57;99155.44;;;13.04;55.66
25650;BME280;13505;45.196;5.696;2023-03-25T21:07:48;99143.25;;;13.01;55.64
25650;BME280;13505;45.196;5.696;2023-03-25T21:12:38;99150.13;;;13.04;56.07
25650;BME280;13505;45.196;5.696;2023-03-25T21:17:30;99164.91;;;13.08;55.41
25650;BME280;13505;45.196;5.696;2023-03-25T21:22:21;99188.66;;;13.09;55.78
25650;BME280;13505;45.196;5.696;2023-03-25T21:27:11;99187.31;;;13.02;56.80
25650;BME280;13505;45.196;5.696;2023-03-25T21:32:06;99184.47;;;13.05;57.04
25650;BME280;13505;45.196;5.696;2023-03-25T21:36:57;99176.97;;;12.97;56.61
25650;BME280;13505;45.196;5.696;2023-03-25T21:41:47;99177.81;;;12.98;57.54
25650;BME280;13505;45.196;5.696;2023-03-25T21:46:38;99195.66;;;13.10;56.79
25650;BME280;13505;45.196;5.696;2023-03-25T21:51:29;99211.38;;;13.14;58.09
25650;BME280;13505;45.196;5.696;2023-03-25T21:56:21;99199.59;;;13.03;58.58
25650;BME280;13505;45.196;5.696;2023-03-25T22:01:17;99195.66;;;12.94;59.29
25650;BME280;13505;45.196;5.696;2023-03-25T22:06:13;99204.72;;;13.06;58.88
25650;BME280;13505;45.196;5.696;2023-03-25T22:11:06;99204.72;;;13.06;59.24
25650;BME280;13505;45.196;5.696;2023-03-25T22:15:57;99192.25;;;12.92;59.71
25650;BME280;13505;45.196;5.696;2023-03-25T22:20:48;99182.94;;;13.01;59.78
25650;BME280;13505;45.196;5.696;2023-03-25T22:25:38;99172.88;;;13.08;59.78
25650;BME280;13505;45.196;5.696;2023-03-25T22:30:29;99162.34;;;13.06;60.49
25650;BME280;13505;45.196;5.696;2023-03-25T22:35:19;99154.84;;;12.98;60.98
25650;BME280;13505;45.196;5.696;2023-03-25T22:40:11;99169.44;;;12.90;59.24
25650;BME280;13505;45.196;5.696;2023-03-25T22:45:02;99172.88;;;12.76;59.76
25650;BME280;13505;45.196;5.696;2023-03-25T22:49:52;99172.88;;;12.76;60.49
25650;BME280;13505;45.196;5.696;2023-03-25T22:54:42;99161.75;;;12.85;59.54
25650;BME280;13505;45.196;5.696;2023-03-25T22:59:33;99122.72;;;12.89;59.38
